Time;durP1;ratioP1;P1;durP2;ratioP2;P2;SDS_P1;SDS_P2;PMS_P1;PMS_P2;Temp;Humidity;BMP_temperature;BMP_pressure;BME280_temperature;BME280_humidity;BME280_pressure;Samples;Min_cycle;Max_cycle;Signal;HPM_P1;HPM_P2
2023/05/27 00:00:17;;;;;;;;;;;;;;;21.78;31.89;97722.38;5011773;28;930;-79
2023/05/27 00:02:43;;;;;;;;;;;;;;;21.69;32.47;97725.09;5028281;28;1101;-79
2023/05/27 00:05:08;;;;;;;;;;;;;;;21.81;32.29;97720.66;5043705;28;990;-79
2023/05/27 00:07:34;;;;;;;;;;;;;;;22.02;31.62;97722.00;5029108;28;1017;-78
2023/05/27 00:10:00;;;;;;;;;;;;;;;22.07;31.69;97724.28;5070851;28;997;-79
2023/05/27 00:12:25;;;;;;;;;;;;;;;22.09;31.71;97721.81;5064946;28;943;-79
2023/05/27 00:14:51;;;;;;;;;;;;;;;22.01;32.01;97720.44;5080387;28;1902;-79
2023/05/27 00:17:17;;;;;;;;;;;;;;;21.75;32.30;97711.94;5081910;28;928;-78
2023/05/27 00:19:44;;;;;;;;;;;;;;;22.05;31.90;97709.78;5080383;28;1030;-79
2023/05/27 00:22:10;;;;;;;;;;;;;;;22.00;31.79;97710.34;5044938;28;1277;-78
2023/05/27 00:24:38;;;;;;;;;;;;;;;22.01;31.74;97707.06;5043704;28;935;-78
2023/05/27 00:27:07;;;;;;;;;;;;;;;22.17;31.49;97703.31;5025169;28;1001;-78
2023/05/27 00:29:33;;;;;;;;;;;;;;;21.94;31.90;97692.34;5007985;28;1155;-79
2023/05/27 00:32:04;;;;;;;;;;;;;;;21.96;31.99;97698.34;5041354;28;1138;-78
2023/05/27 00:34:34;;;;;;;;;;;;;;;21.93;31.93;97702.09;5024410;28;1922;-78
2023/05/27 00:36:59;;;;;;;;;;;;;;;21.92;31.89;97694.84;5024973;28;1249;-78
2023/05/27 00:39:25;;;;;;;;;;;;;;;21.98;31.80;97693.81;5007453;28;1109;-78
2023/05/27 00:41:51;;;;;;;;;;;;;;;21.83;32.04;97693.50;5024779;28;1345;-78
2023/05/27 00:44:16;;;;;;;;;;;;;;;21.77;32.15;97700.97;5007297;28;1048;-78
2023/05/27 00:46:42;;;;;;;;;;;;;;;21.92;32.02;97698.47;5005760;28;1131;-78
2023/05/27 00:49:08;;;;;;;;;;;;;;;22.04;31.80;97691.22;5003996;28;999;-79
2023/05/27 00:51:33;;;;;;;;;;;;;;;22.22;31.54;97690.63;5021970;28;1040;-79
2023/05/27 00:53:59;;;;;;;;;;;;;;;22.19;31.88;97691.56;5038106;28;1942;-78
2023/05/27 00:56:25;;;;;;;;;;;;;;;22.23;31.78;97690.19;5042105;28;1236;-78
2023/05/27 00:58:51;;;;;;;;;;;;;;;21.95;32.06;97682.59;5023635;28;1252;-78
2023/05/27 01:01:17;;;;;;;;;;;;;;;22.24;31.30;97683.25;5041471;28;1298;-79
2023/05/27 01:03:42;;;;;;;;;;;;;;;22.11;31.52;97685.31;5031200;28;1128;-79
2023/05/27 01:06:22;;;;;;;;;;;;;;;22.13;31.91;97685.69;5066365;28;1233;-79
2023/05/27 01:08:51;;;;;;;;;;;;;;;22.02;32.05;97682.34;5065537;28;949;-78
2023/05/27 01:11:17;;;;;;;;;;;;;;;22.01;31.68;97684.41;5069964;28;865;-78
2023/05/27 01:13:44;;;;;;;;;;;;;;;21.80;32.45;97671.72;5085755;28;869;-78
2023/05/27 01:16:13;;;;;;;;;;;;;;;21.65;32.45;97676.28;5070481;28;1391;-79
2023/05/27 01:18:44;;;;;;;;;;;;;;;21.90;32.01;97674.69;5068454;28;1151;-79
2023/05/27 01:21:12;;;;;;;;;;;;;;;21.97;32.27;97680.13;5053461;28;1295;-78
2023/05/27 01:23:38;;;;;;;;;;;;;;;21.94;32.31;97675.34;5068620;28;1236;-79
2023/05/27 01:26:04;;;;;;;;;;;;;;;21.59;32.72;97678.09;5070544;28;1472;-79
2023/05/27 01:28:30;;;;;;;;;;;;;;;21.80;32.53;97677.41;5067596;28;879;-78
2023/05/27 01:30:58;;;;;;;;;;;;;;;21.97;32.32;97682.97;5086902;28;925;-78
2023/05/27 01:33:25;;;;;;;;;;;;;;;22.12;31.83;97675.56;5084293;28;930;-78
2023/05/27 01:35:51;;;;;;;;;;;;;;;21.93;31.86;97673.78;5069604;28;1918;-78
2023/05/27 01:38:17;;;;;;;;;;;;;;;21.82;31.96;97674.91;5068042;28;1134;-78
2023/05/27 01:40:43;;;;;;;;;;;;;;;21.92;31.83;97666.53;5085746;28;957;-79
2023/05/27 01:43:09;;;;;;;;;;;;;;;21.99;31.63;97666.28;5067633;28;1273;-79
2023/05/27 01:45:36;;;;;;;;;;;;;;;21.69;32.19;97659.97;5069103;28;1287;-78
2023/05/27 01:48:02;;;;;;;;;;;;;;;21.94;31.99;97672.53;5051663;28;1149;-78
2023/05/27 01:50:30;;;;;;;;;;;;;;;21.82;32.09;97668.47;5068644;28;1123;-78
2023/05/27 01:52:56;;;;;;;;;;;;;;;21.99;31.68;97666.28;5084549;28;1164;-78
2023/05/27 01:55:22;;;;;;;;;;;;;;;21.75;32.08;97675.13;5086682;28;1891;-78
2023/05/27 01:57:47;;;;;;;;;;;;;;;21.82;32.10;97663.59;5068646;28;1139;-78
2023/05/27 02:00:16;;;;;;;;;;;;;;;22.03;31.84;97676.25;5085036;28;1117;-78
2023/05/27 02:02:44;;;;;;;;;;;;;;;22.04;31.48;97668.53;5067449;28;972;-79
2023/05/27 02:05:12;;;;;;;;;;;;;;;22.12;31.36;97669.91;5066909;28;1156;-78
2023/05/27 02:07:38;;;;;;;;;;;;;;;21.74;32.28;97662.22;5084241;28;1016;-79
2023/05/27 02:10:04;;;;;;;;;;;;;;;21.64;32.14;97666.19;5066692;28;1393;-78
2023/05/27 02:12:30;;;;;;;;;;;;;;;22.45;32.51;97669.59;5067068;28;1044;-78
2023/05/27 02:14:55;;;;;;;;;;;;;;;22.51;32.81;97664.94;5065989;28;1949;-78
2023/05/27 02:17:21;;;;;;;;;;;;;;;22.85;33.13;97670.56;5084363;28;1025;-76
2023/05/27 02:19:47;;;;;;;;;;;;;;;22.49;34.03;97661.78;5045495;28;1083;-78
2023/05/27 02:22:12;;;;;;;;;;;;;;;22.23;33.81;97658.22;5030790;28;1283;-78
2023/05/27 02:24:38;;;;;;;;;;;;;;;22.34;33.13;97664.31;5045668;28;989;-78
2023/05/27 02:27:03;;;;;;;;;;;;;;;22.11;33.32;97662.66;5046954;28;1254;-79
2023/05/27 02:29:29;;;;;;;;;;;;;;;21.95;33.47;97657.91;5046199;28;962;-78
2023/05/27 02:31:55;;;;;;;;;;;;;;;21.96;33.16;97661.50;5047242;28;1321;-79
2023/05/27 02:34:21;;;;;;;;;;;;;;;22.06;33.05;97666.03;5013970;28;1910;-78
2023/05/27 02:36:50;;;;;;;;;;;;;;;22.01;32.89;97666.59;5011792;28;1207;-79
2023/05/27 02:39:16;;;;;;;;;;;;;;;21.94;33.00;97659.16;5025813;28;1349;-78
2023/05/27 02:41:42;;;;;;;;;;;;;;;21.92;32.89;97658.03;5043305;28;982;-79
2023/05/27 02:44:08;;;;;;;;;;;;;;;21.97;32.59;97666.75;5025400;28;1263;-78
2023/05/27 02:46:34;;;;;;;;;;;;;;;21.61;32.93;97638.03;5043235;28;940;-79
2023/05/27 02:49:00;;;;;;;;;;;;;;;21.91;32.87;97659.25;5026412;28;863;-78
2023/05/27 02:51:27;;;;;;;;;;;;;;;21.87;32.59;97659.41;5042112;28;1455;-78
2023/05/27 02:53:53;;;;;;;;;;;;;;;22.05;31.94;97659.56;5066142;28;1902;-78
2023/05/27 02:56:18;;;;;;;;;;;;;;;22.00;32.06;97650.88;5067803;28;1654;-78
2023/05/27 02:58:44;;;;;;;;;;;;;;;22.10;32.18;97658.22;5045679;28;1175;-79
2023/05/27 03:01:10;;;;;;;;;;;;;;;22.07;32.07;97659.13;5029963;28;1073;-77
2023/05/27 03:03:35;;;;;;;;;;;;;;;22.20;31.95;97659.13;5044771;28;948;-78
2023/05/27 03:06:01;;;;;;;;;;;;;;;22.05;32.13;97662.41;5046929;28;935;-78
2023/05/27 03:08:27;;;;;;;;;;;;;;;22.17;31.84;97665.69;5004277;28;1226;-79
2023/05/27 03:10:52;;;;;;;;;;;;;;;22.01;31.94;97669.44;5007151;28;946;-79
2023/05/27 03:13:18;;;;;;;;;;;;;;;21.94;32.05;97675.34;5005321;28;1230;-79
2023/05/27 03:15:43;;;;;;;;;;;;;;;22.07;32.04;97674.09;4989909;28;1932;-79
2023/05/27 03:18:09;;;;;;;;;;;;;;;21.89;32.12;97673.09;5004911;28;844;-78
2023/05/27 03:20:34;;;;;;;;;;;;;;;21.83;32.14;97679.34;4989953;28;1140;-78
2023/05/27 03:23:00;;;;;;;;;;;;;;;21.81;32.24;97681.84;5005527;28;938;-77
2023/05/27 03:25:26;;;;;;;;;;;;;;;22.15;31.74;97686.00;5006039;28;1292;-77
2023/05/27 03:27:53;;;;;;;;;;;;;;;22.07;32.01;97684.63;4947111;29;1128;-79
2023/05/27 03:30:19;;;;;;;;;;;;;;;21.90;31.91;97674.69;4962110;28;1148;-78
2023/05/27 03:32:48;;;;;;;;;;;;;;;22.24;31.78;97680.44;4966972;28;1287;-79
2023/05/27 03:35:17;;;;;;;;;;;;;;;22.18;31.35;97690.75;4966419;28;1899;-78
2023/05/27 03:37:45;;;;;;;;;;;;;;;22.19;31.61;97680.22;4962693;28;1155;-77
2023/05/27 03:40:11;;;;;;;;;;;;;;;21.98;31.97;97687.38;4978499;28;1316;-79
2023/05/27 03:42:37;;;;;;;;;;;;;;;22.04;31.84;97679.88;5002518;28;1321;-78
2023/05/27 03:45:03;;;;;;;;;;;;;;;21.96;32.21;97687.00;4981728;28;1076;-79
2023/05/27 03:47:29;;;;;;;;;;;;;;;22.14;31.93;97684.41;4983314;28;1345;-79
2023/05/27 03:49:54;;;;;;;;;;;;;;;22.11;31.96;97691.00;4965719;28;1162;-78
2023/05/27 03:52:20;;;;;;;;;;;;;;;21.84;32.17;97695.06;4983176;28;1345;-79
2023/05/27 03:54:46;;;;;;;;;;;;;;;21.81;32.51;97692.34;4965802;28;1985;-78
2023/05/27 03:57:12;;;;;;;;;;;;;;;21.89;32.22;97695.75;4967117;28;1192;-78
2023/05/27 03:59:38;;;;;;;;;;;;;;;22.03;32.28;97695.28;5014507;28;1035;-79
2023/05/27 04:02:04;;;;;;;;;;;;;;;21.87;32.42;97703.94;5005908;28;1007;-78
2023/05/27 04:04:29;;;;;;;;;;;;;;;21.93;32.40;97702.09;5004428;28;946;-78
2023/05/27 04:06:55;;;;;;;;;;;;;;;22.23;32.11;97701.53;5005337;28;1266;-79
2023/05/27 04:09:21;;;;;;;;;;;;;;;22.08;32.21;97697.56;5050947;28;1124;-78
2023/05/27 04:11:46;;;;;;;;;;;;;;;22.11;32.45;97702.31;5048252;28;1107;-79
2023/05/27 04:14:12;;;;;;;;;;;;;;;22.20;32.29;97705.25;5062927;28;1902;-79
2023/05/27 04:16:37;;;;;;;;;;;;;;;21.97;32.71;97705.63;5036258;28;958;-78
2023/05/27 04:19:03;;;;;;;;;;;;;;;22.17;32.36;97703.31;5024097;28;1095;-78
2023/05/27 04:21:28;;;;;;;;;;;;;;;22.09;32.23;97699.91;5024735;28;1032;-78
2023/05/27 04:23:56;;;;;;;;;;;;;;;22.15;32.34;97703.00;5060566;28;1090;-79
2023/05/27 04:26:22;;;;;;;;;;;;;;;22.05;32.59;97698.44;5044588;28;1188;-79
2023/05/27 04:28:52;;;;;;;;;;;;;;;22.07;32.51;97696.75;5004139;28;1300;-78
2023/05/27 04:31:19;;;;;;;;;;;;;;;22.16;32.69;97698.13;4973283;28;1251;-79
2023/05/27 04:33:53;;;;;;;;;;;;;;;22.20;32.32;97693.13;5020534;28;1957;-77
2023/05/27 04:36:19;;;;;;;;;;;;;;;22.04;32.63;97691.22;5022040;28;1487;-79
2023/05/27 04:38:57;;;;;;;;;;;;;;;21.75;33.27;97703.44;5004953;28;1302;-78
2023/05/27 04:41:27;;;;;;;;;;;;;;;21.85;33.07;97699.47;5005638;28;1333;-78
2023/05/27 04:44:10;;;;;;;;;;;;;;;22.05;32.78;97704.91;4995010;28;1340;-78
2023/05/27 04:46:43;;;;;;;;;;;;;;;21.84;33.19;97706.41;4996336;28;1265;-78
2023/05/27 04:49:10;;;;;;;;;;;;;;;22.00;33.12;97701.84;5006245;28;1221;-78
2023/05/27 04:51:35;;;;;;;;;;;;;;;21.78;33.10;97708.22;5008683;28;1049;-78
2023/05/27 04:54:01;;;;;;;;;;;;;;;21.94;32.78;97706.50;5016083;28;1939;-78
2023/05/27 04:56:28;;;;;;;;;;;;;;;22.18;32.69;97710.59;4995222;28;1080;-79
2023/05/27 04:58:55;;;;;;;;;;;;;;;22.06;32.76;97705.69;5012686;28;1231;-78
2023/05/27 05:01:29;;;;;;;;;;;;;;;22.30;32.49;97709.78;5015579;28;1168;-78
2023/05/27 05:04:14;;;;;;;;;;;;;;;22.17;32.42;97699.69;5014331;28;1278;-78
2023/05/27 05:06:44;;;;;;;;;;;;;;;22.05;32.79;97699.25;5047301;28;1222;-77
2023/05/27 05:09:11;;;;;;;;;;;;;;;22.15;32.62;97708.66;5037035;28;1242;-79
2023/05/27 05:11:37;;;;;;;;;;;;;;;22.03;32.79;97706.63;5071645;28;1331;-79
2023/05/27 05:14:03;;;;;;;;;;;;;;;21.94;33.05;97712.97;5052960;28;1978;-78
2023/05/27 05:16:29;;;;;;;;;;;;;;;21.78;33.58;97716.72;5054332;28;1273;-78
2023/05/27 05:18:54;;;;;;;;;;;;;;;22.00;33.05;97713.97;5053212;28;1575;-78
2023/05/27 05:21:21;;;;;;;;;;;;;;;21.96;32.96;97707.63;5088011;28;1244;-79
2023/05/27 05:23:47;;;;;;;;;;;;;;;22.03;32.95;97718.75;5087500;28;990;-80
2023/05/27 05:26:13;;;;;;;;;;;;;;;22.12;32.90;97714.44;5072814;28;1082;-79
2023/05/27 05:28:41;;;;;;;;;;;;;;;22.05;33.00;97721.91;5070853;28;1199;-79
2023/05/27 05:31:07;;;;;;;;;;;;;;;22.01;33.28;97720.44;5088863;28;1179;-79
2023/05/27 05:33:33;;;;;;;;;;;;;;;22.15;32.74;97724.88;5070398;28;1102;-79
2023/05/27 05:35:59;;;;;;;;;;;;;;;22.08;32.94;97723.84;5051987;28;1988;-79
2023/05/27 05:38:32;;;;;;;;;;;;;;;22.15;32.79;97722.84;5066005;28;1173;-78
2023/05/27 05:40:58;;;;;;;;;;;;;;;22.15;32.70;97720.00;5051506;28;1091;-79
2023/05/27 05:43:24;;;;;;;;;;;;;;;21.98;33.03;97721.38;5066307;28;1244;-79
2023/05/27 05:45:50;;;;;;;;;;;;;;;22.16;32.74;97724.41;5068740;28;1493;-79
2023/05/27 05:48:18;;;;;;;;;;;;;;;22.01;33.20;97715.56;5065878;28;1122;-80
2023/05/27 05:50:44;;;;;;;;;;;;;;;21.92;33.29;97723.19;5067965;28;1142;-79
2023/05/27 05:53:10;;;;;;;;;;;;;;;21.97;32.95;97736.78;5025192;28;1210;-78
2023/05/27 05:55:36;;;;;;;;;;;;;;;22.06;32.75;97725.53;5009097;28;1985;-79
2023/05/27 05:58:01;;;;;;;;;;;;;;;22.00;33.32;97724.53;5006901;28;958;-79
2023/05/27 06:00:27;;;;;;;;;;;;;;;21.90;33.34;97732.13;5024128;28;1130;-79
2023/05/27 06:03:03;;;;;;;;;;;;;;;21.97;33.27;97737.56;5007084;28;1247;-78
2023/05/27 06:05:43;;;;;;;;;;;;;;;22.18;32.79;97741.78;5024414;28;1364;-79
2023/05/27 06:08:08;;;;;;;;;;;;;;;22.03;33.24;97746.28;4993668;28;1272;-78
2023/05/27 06:10:37;;;;;;;;;;;;;;;22.20;32.96;97747.78;5044014;28;1152;-80
2023/05/27 06:13:03;;;;;;;;;;;;;;;21.77;33.82;97757.63;5022625;28;1349;-79
2023/05/27 06:15:30;;;;;;;;;;;;;;;21.76;33.81;97756.03;5024211;28;1907;-79
2023/05/27 06:17:56;;;;;;;;;;;;;;;22.03;33.21;97744.25;5006811;28;1108;-79
2023/05/27 06:20:23;;;;;;;;;;;;;;;22.07;32.91;97746.94;5006716;28;1125;-80
2023/05/27 06:22:49;;;;;;;;;;;;;;;22.03;33.04;97757.63;5007082;28;1142;-80
2023/05/27 06:25:33;;;;;;;;;;;;;;;22.06;32.99;97751.03;5064354;28;1024;-79
2023/05/27 06:28:03;;;;;;;;;;;;;;;22.12;32.97;97749.25;5030023;28;1166;-80
2023/05/27 06:30:29;;;;;;;;;;;;;;;22.12;32.80;97749.25;5046239;28;1325;-80
2023/05/27 06:32:55;;;;;;;;;;;;;;;21.98;33.13;97755.34;5005553;28;1364;-80
2023/05/27 06:35:22;;;;;;;;;;;;;;;22.34;32.42;97757.84;4990916;28;1981;-80
2023/05/27 06:37:48;;;;;;;;;;;;;;;22.04;32.88;97751.50;5006822;28;1246;-80
2023/05/27 06:40:14;;;;;;;;;;;;;;;22.01;32.97;97757.25;5021979;28;1269;-80
2023/05/27 06:42:40;;;;;;;;;;;;;;;21.88;33.33;97762.16;5007060;28;1277;-80
2023/05/27 06:45:14;;;;;;;;;;;;;;;22.03;32.79;97757.63;5024578;28;1322;-80
2023/05/27 06:47:42;;;;;;;;;;;;;;;21.97;33.16;97748.09;5043246;28;1396;-80
2023/05/27 06:50:08;;;;;;;;;;;;;;;22.05;33.17;97755.13;5020445;28;1286;-80
2023/05/27 06:52:33;;;;;;;;;;;;;;;21.87;33.17;97760.56;5000528;28;1229;-80
2023/05/27 06:55:17;;;;;;;;;;;;;;;21.95;32.86;97761.91;5000784;28;1887;-80
2023/05/27 06:58:01;;;;;;;;;;;;;;;21.97;32.89;97748.09;4998060;28;1063;-79
2023/05/27 07:00:42;;;;;;;;;;;;;;;22.29;32.19;97752.75;4987457;28;1239;-79
2023/05/27 07:03:34;;;;;;;;;;;;;;;22.09;32.72;97750.94;5001814;28;1093;-79
2023/05/27 07:05:59;;;;;;;;;;;;;;;21.96;32.89;97749.34;4987254;28;1253;-79
2023/05/27 07:08:29;;;;;;;;;;;;;;;22.01;32.58;97749.56;4990003;28;1284;-79
2023/05/27 07:11:06;;;;;;;;;;;;;;;22.08;32.53;97748.56;5019459;28;1297;-79
2023/05/27 07:13:32;;;;;;;;;;;;;;;22.17;32.76;97750.72;5033078;28;1454;-79
2023/05/27 07:15:58;;;;;;;;;;;;;;;22.21;32.52;97752.19;5033190;28;1983;-80
2023/05/27 07:18:23;;;;;;;;;;;;;;;22.12;32.66;97746.41;5015414;28;1289;-80
2023/05/27 07:20:52;;;;;;;;;;;;;;;21.94;33.35;97758.28;5020462;28;1273;-80
2023/05/27 07:23:18;;;;;;;;;;;;;;;22.04;33.10;97759.22;5033629;28;1281;-79
2023/05/27 07:25:50;;;;;;;;;;;;;;;22.05;32.80;97755.13;5017162;28;1253;-81
2023/05/27 07:28:16;;;;;;;;;;;;;;;22.17;32.61;97757.16;5030323;28;1301;-80
2023/05/27 07:30:48;;;;;;;;;;;;;;;22.18;32.55;97758.78;5080182;28;1444;-80
2023/05/27 07:33:13;;;;;;;;;;;;;;;22.05;32.87;97755.13;5082314;28;1261;-79
2023/05/27 07:35:40;;;;;;;;;;;;;;;22.18;32.86;97753.09;5050788;28;1956;-80
2023/05/27 07:38:06;;;;;;;;;;;;;;;22.19;32.75;97757.53;5066004;28;1236;-80
2023/05/27 07:40:31;;;;;;;;;;;;;;;22.15;32.62;97759.69;5050427;28;1231;-81
2023/05/27 07:42:57;;;;;;;;;;;;;;;22.28;32.35;97757.63;5082837;28;1025;-80
2023/05/27 07:45:22;;;;;;;;;;;;;;;22.18;32.98;97752.31;5065475;28;1177;-80
2023/05/27 07:47:48;;;;;;;;;;;;;;;22.06;32.81;97753.88;5048485;28;1269;-80
2023/05/27 07:50:14;;;;;;;;;;;;;;;22.06;33.02;97751.03;5065326;28;1212;-80
2023/05/27 07:52:50;;;;;;;;;;;;;;;22.18;32.75;97758.78;5066776;28;1207;-80
2023/05/27 07:55:22;;;;;;;;;;;;;;;22.13;32.89;97761.41;5066340;28;1979;-80
2023/05/27 07:57:48;;;;;;;;;;;;;;;22.09;32.84;97756.59;5065493;28;1278;-80
2023/05/27 08:00:14;;;;;;;;;;;;;;;22.01;32.89;97754.44;5065433;28;1126;-81
2023/05/27 08:02:51;;;;;;;;;;;;;;;22.15;32.79;97748.34;5061674;28;965;-80
2023/05/27 08:05:18;;;;;;;;;;;;;;;21.97;33.31;97756.59;5045605;28;1474;-80
2023/05/27 08:08:07;;;;;;;;;;;;;;;22.05;33.05;97743.78;5030720;28;1310;-80
2023/05/27 08:10:51;;;;;;;;;;;;;;;22.00;33.57;97758.53;5048156;28;986;-80
2023/05/27 08:13:35;;;;;;;;;;;;;;;22.07;33.23;97752.59;5046295;28;912;-80
2023/05/27 08:16:24;;;;;;;;;;;;;;;22.22;33.01;97769.97;5009668;28;1030;-81
2023/05/27 08:19:02;;;;;;;;;;;;;;;22.30;32.94;97766.47;4990527;28;1297;-80
2023/05/27 08:21:40;;;;;;;;;;;;;;;22.19;33.16;97760.34;4977312;28;1595;-80
2023/05/27 08:24:12;;;;;;;;;;;;;;;22.12;33.34;97765.44;5021657;28;1187;-80
2023/05/27 08:26:57;;;;;;;;;;;;;;;22.18;33.16;97770.13;5006767;28;1093;-80
2023/05/27 08:29:36;;;;;;;;;;;;;;;22.32;32.85;97763.16;5006479;28;1127;-79
2023/05/27 08:32:22;;;;;;;;;;;;;;;22.09;33.14;97761.47;5005919;28;1195;-80
2023/05/27 08:34:48;;;;;;;;;;;;;;;22.22;32.92;97753.75;5021258;28;1910;-80
2023/05/27 08:37:14;;;;;;;;;;;;;;;22.39;32.65;97753.66;5023095;28;1206;-80
2023/05/27 08:39:41;;;;;;;;;;;;;;;22.03;33.57;97751.97;5014948;28;1175;-80
2023/05/27 08:42:26;;;;;;;;;;;;;;;22.06;33.34;97745.38;5031701;28;1212;-80
2023/05/27 08:44:52;;;;;;;;;;;;;;;22.24;32.90;97745.63;5044924;28;1123;-79
2023/05/27 08:47:18;;;;;;;;;;;;;;;22.43;32.72;97742.97;5012414;28;1188;-80
2023/05/27 08:49:45;;;;;;;;;;;;;;;21.89;33.56;97746.75;5010925;28;1414;-80
2023/05/27 08:52:13;;;;;;;;;;;;;;;22.14;33.42;97740.31;5012564;28;1241;-80
2023/05/27 08:54:39;;;;;;;;;;;;;;;22.32;32.90;97740.50;5064873;28;1888;-80
2023/05/27 08:57:07;;;;;;;;;;;;;;;22.09;33.13;97733.13;5065412;28;992;-80
2023/05/27 08:59:32;;;;;;;;;;;;;;;22.08;33.28;97728.72;5044200;28;930;-80
2023/05/27 09:02:02;;;;;;;;;;;;;;;22.33;32.78;97736.44;5029255;28;1084;-80
2023/05/27 09:04:28;;;;;;;;;;;;;;;21.99;33.12;97728.59;5023683;28;1228;-80
2023/05/27 09:06:54;;;;;;;;;;;;;;;21.90;33.19;97731.31;5008807;28;1394;-80
2023/05/27 09:09:20;;;;;;;;;;;;;;;21.88;33.14;97723.28;5023722;28;944;-80
2023/05/27 09:11:45;;;;;;;;;;;;;;;21.70;33.42;97729.50;5041332;28;854;-80
2023/05/27 09:14:23;;;;;;;;;;;;;;;22.29;32.43;97725.19;5007660;28;1903;-80
2023/05/27 09:16:48;;;;;;;;;;;;;;;22.15;32.30;97725.66;5025270;28;972;-81
2023/05/27 09:19:14;;;;;;;;;;;;;;;21.99;32.77;97718.06;5007608;28;1010;-80
2023/05/27 09:21:40;;;;;;;;;;;;;;;21.91;32.82;97715.91;5025231;28;950;-80
2023/05/27 09:24:06;;;;;;;;;;;;;;;21.69;33.26;97702.44;5023603;28;947;-81
2023/05/27 09:26:33;;;;;;;;;;;;;;;21.88;32.74;97702.69;5041864;28;929;-80
2023/05/27 09:29:02;;;;;;;;;;;;;;;21.84;32.71;97695.06;5024256;28;1010;-80
2023/05/27 09:31:28;;;;;;;;;;;;;;;22.14;32.44;97707.09;5063023;28;968;-80
2023/05/27 09:33:53;;;;;;;;;;;;;;;22.09;31.96;97688.59;5063936;28;943;-80
2023/05/27 09:36:22;;;;;;;;;;;;;;;21.57;32.99;97691.91;5082623;28;1965;-81
2023/05/27 09:38:48;;;;;;;;;;;;;;;21.81;32.55;97684.66;5083735;28;894;-80
2023/05/27 09:41:13;;;;;;;;;;;;;;;22.06;32.04;97688.69;5068721;28;997;-80
2023/05/27 09:43:39;;;;;;;;;;;;;;;22.10;31.73;97683.72;5066626;28;909;-80
2023/05/27 09:46:07;;;;;;;;;;;;;;;21.80;32.37;97674.56;5068807;28;957;-80
2023/05/27 09:48:32;;;;;;;;;;;;;;;21.94;31.85;97675.34;5079971;28;979;-79
2023/05/27 09:51:01;;;;;;;;;;;;;;;22.05;31.78;97687.13;5087232;28;1580;-79
2023/05/27 09:53:27;;;;;;;;;;;;;;;21.88;32.15;97682.84;5083963;28;906;-79
2023/05/27 09:55:53;;;;;;;;;;;;;;;21.90;32.25;97680.34;5086754;28;1977;-80
2023/05/27 09:58:19;;;;;;;;;;;;;;;22.01;31.74;97672.28;5066858;28;894;-79
2023/05/27 10:00:44;;;;;;;;;;;;;;;21.73;32.53;97663.47;5085817;28;997;-80
2023/05/27 10:03:10;;;;;;;;;;;;;;;21.88;32.47;97672.31;5066727;28;932;-80
2023/05/27 10:05:35;;;;;;;;;;;;;;;22.06;32.14;97671.69;5084441;28;806;-79
2023/05/27 10:08:01;;;;;;;;;;;;;;;22.07;32.06;97664.78;5083804;28;924;-80
2023/05/27 10:10:26;;;;;;;;;;;;;;;21.92;32.50;97677.88;5084728;28;904;-79
2023/05/27 10:12:54;;;;;;;;;;;;;;;21.98;32.50;97681.69;5084480;28;939;-80
2023/05/27 10:15:31;;;;;;;;;;;;;;;21.74;32.62;97684.88;5065832;28;1886;-80
2023/05/27 10:17:58;;;;;;;;;;;;;;;21.99;32.40;97677.63;5062545;28;1120;-80
2023/05/27 10:20:24;;;;;;;;;;;;;;;21.92;32.21;97677.88;5026467;28;1135;-80
2023/05/27 10:22:50;;;;;;;;;;;;;;;21.87;32.50;97675.59;5026726;28;877;-80
2023/05/27 10:25:16;;;;;;;;;;;;;;;22.07;31.86;97687.44;5009966;28;912;-80
2023/05/27 10:27:47;;;;;;;;;;;;;;;22.01;31.90;97697.78;5044043;28;981;-80
2023/05/27 10:30:13;;;;;;;;;;;;;;;21.72;32.43;97692.25;5026242;28;961;-79
2023/05/27 10:32:49;;;;;;;;;;;;;;;21.88;32.26;97694.19;5010302;28;979;-79
2023/05/27 10:35:15;;;;;;;;;;;;;;;21.84;32.08;97688.63;5025523;28;1914;-80
2023/05/27 10:37:41;;;;;;;;;;;;;;;21.69;32.53;97685.44;5026681;28;919;-79
2023/05/27 10:40:07;;;;;;;;;;;;;;;21.71;32.09;97697.13;4992990;28;1108;-80
2023/05/27 10:42:33;;;;;;;;;;;;;;;21.85;31.82;97702.31;5026241;28;1426;-80
2023/05/27 10:45:05;;;;;;;;;;;;;;;21.78;31.76;97702.56;5026205;28;1010;-80
2023/05/27 10:47:33;;;;;;;;;;;;;;;21.90;31.80;97703.00;5026845;28;920;-79
2023/05/27 10:49:59;;;;;;;;;;;;;;;21.91;31.43;97698.91;5041975;28;1045;-80
2023/05/27 10:52:26;;;;;;;;;;;;;;;21.72;31.39;97698.72;5063473;28;1084;-79
2023/05/27 10:54:52;;;;;;;;;;;;;;;22.01;31.00;97697.78;5046101;28;1914;-80
2023/05/27 10:57:18;;;;;;;;;;;;;;;21.73;30.99;97700.28;5047492;28;1067;-80
2023/05/27 10:59:43;;;;;;;;;;;;;;;21.64;31.03;97708.66;5063071;28;836;-80
2023/05/27 11:02:09;;;;;;;;;;;;;;;21.72;30.86;97704.38;5064475;28;963;-80
2023/05/27 11:04:37;;;;;;;;;;;;;;;21.75;30.70;97706.28;5045842;28;1375;-80
2023/05/27 11:07:03;;;;;;;;;;;;;;;21.56;31.13;97712.97;5063790;28;947;-79
2023/05/27 11:09:28;;;;;;;;;;;;;;;21.49;30.94;97696.19;5063728;28;928;-80
2023/05/27 11:11:58;;;;;;;;;;;;;;;22.06;30.59;97697.19;5063964;28;929;-80
2023/05/27 11:14:24;;;;;;;;;;;;;;;22.51;30.62;97687.59;5059084;28;1963;-80
2023/05/27 11:16:52;;;;;;;;;;;;;;;22.69;31.28;97684.94;5063137;28;948;-80
2023/05/27 11:19:21;;;;;;;;;;;;;;;22.81;31.75;97681.25;5062702;28;918;-80
2023/05/27 11:21:47;;;;;;;;;;;;;;;22.05;32.56;97675.78;5047628;28;865;-80
2023/05/27 11:24:16;;;;;;;;;;;;;;;21.64;33.00;97679.56;5046019;28;1278;-80
2023/05/27 11:26:42;;;;;;;;;;;;;;;21.80;32.11;97671.72;5047586;28;1139;-80
2023/05/27 11:29:08;;;;;;;;;;;;;;;21.94;31.49;97664.03;5045729;28;948;-80
2023/05/27 11:31:33;;;;;;;;;;;;;;;21.83;31.56;97670.84;5047119;28;866;-80
2023/05/27 11:33:59;;;;;;;;;;;;;;;21.76;31.38;97671.06;5062714;28;821;-80
2023/05/27 11:36:30;;;;;;;;;;;;;;;21.69;31.62;97671.28;5047103;28;1922;-80
2023/05/27 11:38:59;;;;;;;;;;;;;;;21.54;31.68;97675.81;5062354;28;1148;-79
2023/05/27 11:41:29;;;;;;;;;;;;;;;21.55;31.43;97666.06;5064350;28;906;-79
2023/05/27 11:43:54;;;;;;;;;;;;;;;21.59;31.16;97666.75;5045828;28;1103;-80
2023/05/27 11:46:20;;;;;;;;;;;;;;;21.73;31.03;97663.47;5064314;28;853;-80
2023/05/27 11:48:46;;;;;;;;;;;;;;;21.65;30.83;97676.28;5029103;28;1255;-80
2023/05/27 11:51:11;;;;;;;;;;;;;;;21.70;30.89;97667.22;5046454;28;1290;-79
2023/05/27 11:53:41;;;;;;;;;;;;;;;21.58;30.85;97677.28;5045035;28;894;-80
2023/05/27 11:56:07;;;;;;;;;;;;;;;21.76;30.42;97671.06;5063057;28;1895;-80
2023/05/27 11:58:32;;;;;;;;;;;;;;;21.91;29.90;97679.09;5061018;28;938;-80
2023/05/27 12:00:58;;;;;;;;;;;;;;;21.58;30.27;97673.69;5047000;28;987;-79
2023/05/27 12:03:24;;;;;;;;;;;;;;;21.49;30.51;97665.06;5061013;28;1026;-80
2023/05/27 12:05:49;;;;;;;;;;;;;;;21.54;30.44;97670.94;5046416;28;1130;-80
2023/05/27 12:08:15;;;;;;;;;;;;;;;22.32;30.14;97673.25;5062411;28;1025;-79
2023/05/27 12:10:40;;;;;;;;;;;;;;;22.56;30.67;97670.81;5064322;28;1021;-80
2023/05/27 12:13:06;;;;;;;;;;;;;;;22.81;30.83;97675.56;5064139;28;941;-80
2023/05/27 12:15:32;;;;;;;;;;;;;;;22.63;31.02;97669.75;5063968;28;1914;-80
2023/05/27 12:17:57;;;;;;;;;;;;;;;22.18;31.21;97685.09;5080346;28;1118;-80
2023/05/27 12:20:27;;;;;;;;;;;;;;;22.05;31.41;97687.91;5063951;28;974;-79
2023/05/27 12:22:53;;;;;;;;;;;;;;;21.90;31.31;97688.84;5080867;28;944;-80
2023/05/27 12:25:19;;;;;;;;;;;;;;;21.70;31.45;97687.03;5024030;28;1006;-79
2023/05/27 12:27:44;;;;;;;;;;;;;;;21.67;31.29;97695.66;5041444;28;1174;-80
2023/05/27 12:30:10;;;;;;;;;;;;;;;21.44;31.81;97708.88;5007497;28;1213;-80
2023/05/27 12:32:35;;;;;;;;;;;;;;;21.60;31.31;97710.81;5030672;28;1043;-80
2023/05/27 12:35:01;;;;;;;;;;;;;;;21.85;30.85;97713.66;5040325;28;1918;-80
2023/05/27 12:37:27;;;;;;;;;;;;;;;21.53;31.16;97717.50;5040942;28;1263;-80
2023/05/27 12:39:53;;;;;;;;;;;;;;;21.73;31.11;97711.63;5039702;28;969;-80
2023/05/27 12:42:18;;;;;;;;;;;;;;;21.54;31.17;97709.78;5040488;28;922;-79
2023/05/27 12:44:44;;;;;;;;;;;;;;;21.65;30.86;97704.59;5039641;28;968;-79
2023/05/27 12:47:09;;;;;;;;;;;;;;;21.85;30.50;97713.66;5007607;28;1056;-80
2023/05/27 12:49:36;;;;;;;;;;;;;;;21.62;30.73;97716.81;5023133;28;1158;-80
2023/05/27 12:52:02;;;;;;;;;;;;;;;21.66;30.60;97716.69;5040965;28;1138;-80
2023/05/27 12:54:28;;;;;;;;;;;;;;;21.61;30.79;97712.41;5040044;28;1966;-80
2023/05/27 12:56:54;;;;;;;;;;;;;;;21.52;30.90;97717.94;5072458;28;929;-79
2023/05/27 12:59:20;;;;;;;;;;;;;;;21.44;30.84;97716.56;5080439;28;949;-79
2023/05/27 13:01:45;;;;;;;;;;;;;;;21.89;30.33;97702.22;5081704;28;928;-79